Time;durP1;ratioP1;P1;durP2;ratioP2;P2;SDS_P1;SDS_P2;PMS_P1;PMS_P2;Temp;Humidity;BMP_temperature;BMP_pressure;BME280_temperature;BME280_humidity;BME280_pressure;Samples;Min_cycle;Max_cycle;Signal;HPM_P1;HPM_P2
2021/06/10 00:00:08;;;;;;;7.78;5.47;;;;;;;29.47;35.66;101494.19;5055613;28;20467;-82
2021/06/10 00:02:34;;;;;;;7.38;5.20;;;;;;;29.44;36.02;101497.84;5073469;28;20125;-82
2021/06/10 00:04:59;;;;;;;6.90;4.70;;;;;;;29.47;35.73;101507.44;5073441;28;20482;-81
2021/06/10 00:07:25;;;;;;;8.80;5.43;;;;;;;29.46;36.09;101501.03;5073420;28;20036;-82
2021/06/10 00:09:51;;;;;;;8.30;5.15;;;;;;;29.48;35.72;101503.44;5055503;28;20119;-81
2021/06/10 00:12:19;;;;;;;7.07;5.18;;;;;;;29.37;35.91;101499.97;5055345;28;20016;-81
2021/06/10 00:14:46;;;;;;;6.40;4.75;;;;;;;29.27;36.33;101496.91;5070760;28;20135;-82
2021/06/10 00:17:12;;;;;;;7.97;5.72;;;;;;;29.10;36.72;101500.75;5073120;28;20090;-82
2021/06/10 00:19:38;;;;;;;7.97;5.60;;;;;;;29.18;36.01;101502.25;5055200;28;20433;-81
2021/06/10 00:22:04;;;;;;;7.40;5.63;;;;;;;29.19;36.44;101503.06;5073144;28;20024;-82
2021/06/10 00:24:30;;;;;;;7.78;5.70;;;;;;;29.21;36.21;101504.22;5073098;28;20032;-81
2021/06/10 00:26:56;;;;;;;8.10;5.93;;;;;;;29.09;36.73;101496.31;5072983;28;20032;-81
2021/06/10 00:29:21;;;;;;;7.70;5.78;;;;;;;29.18;36.13;101499.44;5072971;28;20040;-82
2021/06/10 00:31:47;;;;;;;7.75;5.78;;;;;;;29.06;36.69;101487.94;5072914;28;20027;-81
2021/06/10 00:34:14;;;;;;;7.50;5.97;;;;;;;29.06;36.59;101485.94;5054955;28;20052;-82
2021/06/10 00:36:40;;;;;;;8.65;6.18;;;;;;;28.97;36.66;101485.66;5054860;28;20029;-82
2021/06/10 00:39:07;;;;;;;10.23;6.55;;;;;;;28.98;36.66;101479.59;5054838;28;20039;-82
2021/06/10 00:41:34;;;;;;;9.15;6.43;;;;;;;28.99;36.45;101471.97;5054936;28;20032;-79
2021/06/10 00:44:01;;;;;;;7.43;5.55;;;;;;;28.96;36.63;101472.81;5054884;28;20032;-80
2021/06/10 00:46:27;;;;;;;8.10;5.82;;;;;;;29.05;36.40;101466.66;5072525;28;20082;-79
2021/06/10 00:48:53;;;;;;;7.57;5.88;;;;;;;29.05;36.42;101461.84;5054691;28;20025;-79
2021/06/10 00:51:19;;;;;;;8.93;6.40;;;;;;;29.04;36.42;101465.06;5072593;28;20043;-80
2021/06/10 00:53:45;;;;;;;8.13;5.95;;;;;;;28.99;36.08;101469.13;5072407;28;20071;-78
2021/06/10 00:56:11;;;;;;;10.05;5.65;;;;;;;28.85;36.62;101472.91;5072637;28;20074;-80
2021/06/10 00:58:38;;;;;;;9.90;6.03;;;;;;;28.86;36.29;101470.88;5072597;28;20103;-80
2021/06/10 01:01:04;;;;;;;8.50;6.00;;;;;;;28.84;36.44;101468.50;5072643;28;20028;-79
2021/06/10 01:03:31;;;;;;;8.82;6.20;;;;;;;28.85;36.38;101470.09;5054551;28;20016;-81
2021/06/10 01:06:05;;;;;;;7.85;5.90;;;;;;;28.77;36.56;101474.22;5072499;28;20401;-82
2021/06/10 01:09:02;;;;;;;8.10;5.80;;;;;;;28.72;36.56;101477.50;5054506;28;20429;-81
2021/06/10 01:11:51;;;;;;;11.18;5.88;;;;;;;28.49;36.86;101483.81;5072448;28;20032;-84
2021/06/10 01:14:26;;;;;;;8.30;5.78;;;;;;;28.55;36.81;101484.91;5072274;28;20078;-83
2021/06/10 01:16:53;;;;;;;9.13;5.60;;;;;;;28.40;36.85;101484.28;5054400;28;20032;-81
2021/06/10 01:19:37;;;;;;;9.75;7.82;;;;;;;28.44;36.91;101487.06;5072405;28;20028;-81
2021/06/10 01:22:05;;;;;;;10.45;7.28;;;;;;;28.45;36.84;101492.25;5072536;28;20468;-80
2021/06/10 01:25:12;;;;;;;12.70;7.95;;;;;;;28.30;36.99;101484.41;5054326;28;20494;-81
2021/06/10 01:27:42;;;;;;;15.88;9.35;;;;;;;28.38;36.92;101480.28;5072321;28;20181;-80
2021/06/10 01:30:13;;;;;;;9.98;8.13;;;;;;;28.43;36.64;101482.66;5072612;28;20029;-82
2021/06/10 01:32:44;;;;;;;11.27;7.70;;;;;;;28.39;36.48;101479.06;5054262;28;20131;-81
2021/06/10 01:35:12;;;;;;;10.90;7.35;;;;;;;28.36;36.72;101482.72;5072348;28;20032;-82
2021/06/10 01:37:38;;;;;;;7.82;6.03;;;;;;;28.27;36.79;101488.81;5072181;28;20032;-81
2021/06/10 01:40:05;;;;;;;9.82;6.47;;;;;;;28.18;37.06;101489.28;5072155;28;20094;-82
2021/06/10 01:42:33;;;;;;;10.35;6.32;;;;;;;28.16;37.02;101493.72;5072152;28;20023;-81
2021/06/10 01:45:00;;;;;;;8.20;6.20;;;;;;;28.20;36.90;101489.69;5072094;28;20025;-81
2021/06/10 01:47:26;;;;;;;11.68;6.70;;;;;;;28.11;37.31;101494.16;5072015;28;20029;-81
2021/06/10 01:49:53;;;;;;;8.63;6.60;;;;;;;27.95;37.36;101500.31;5072112;28;20024;-81
2021/06/10 01:52:21;;;;;;;8.32;6.38;;;;;;;27.83;37.57;101500.84;5054066;28;20356;-81
2021/06/10 01:54:49;;;;;;;10.13;6.85;;;;;;;27.88;37.46;101494.78;5072113;28;20060;-81
2021/06/10 01:57:15;;;;;;;8.93;6.32;;;;;;;27.83;37.64;101503.66;5071947;28;20547;-81
2021/06/10 01:59:42;;;;;;;9.82;7.15;;;;;;;27.76;37.64;101495.28;5054008;28;20032;-82
2021/06/10 02:02:09;;;;;;;10.43;6.40;;;;;;;27.62;37.88;101499.75;5071976;28;20079;-81
2021/06/10 02:04:35;;;;;;;6.88;6.10;;;;;;;27.59;38.09;101497.00;5072438;28;20020;-80
2021/06/10 02:07:02;;;;;;;9.93;6.35;;;;;;;27.67;38.02;101498.56;5075585;28;20035;-81
2021/06/10 02:09:28;;;;;;;10.80;6.53;;;;;;;27.70;37.82;101494.13;5056718;28;20491;-81
2021/06/10 02:11:54;;;;;;;8.80;6.53;;;;;;;27.15;39.14;101500.47;5074847;28;20111;-81
2021/06/10 02:14:21;;;;;;;10.50;7.07;;;;;;;27.18;39.11;101494.81;5075401;28;20076;-81
2021/06/10 02:16:48;;;;;;;10.23;7.30;;;;;;;27.44;38.34;101501.09;5075517;28;20020;-81
2021/06/10 02:19:17;;;;;;;9.13;6.95;;;;;;;27.48;38.47;101493.44;5057565;28;20035;-81
2021/06/10 02:21:43;;;;;;;10.18;6.72;;;;;;;27.35;38.29;101490.31;5075431;28;20024;-81
2021/06/10 02:24:14;;;;;;;8.38;6.75;;;;;;;27.49;38.10;101487.41;5075387;28;20074;-81
2021/06/10 02:26:41;;;;;;;8.98;6.07;;;;;;;27.46;38.16;101485.44;5057317;28;20026;-83
2021/06/10 02:29:07;;;;;;;9.60;6.60;;;;;;;27.61;37.75;101489.75;5075190;28;20024;-81
2021/06/10 02:31:33;;;;;;;12.27;6.32;;;;;;;27.52;38.04;101480.19;5075234;28;20021;-82
2021/06/10 02:33:58;;;;;;;9.50;6.95;;;;;;;27.57;37.83;101485.34;5074440;28;20048;-81
2021/06/10 02:36:24;;;;;;;9.63;6.50;;;;;;;27.37;38.04;101485.09;5061462;28;20083;-80
2021/06/10 02:38:54;;;;;;;7.53;6.03;;;;;;;27.33;38.39;101479.50;5063741;28;20360;-85
2021/06/10 02:41:25;;;;;;;7.80;5.45;;;;;;;27.42;38.05;101481.06;5043269;28;20070;-84
2021/06/10 02:43:52;;;;;;;8.75;5.95;;;;;;;27.33;38.29;101484.31;5047910;28;20123;-85
2021/06/10 02:46:18;;;;;;;7.03;5.75;;;;;;;27.38;38.54;101478.28;5042222;28;20059;-85
2021/06/10 02:48:46;;;;;;;6.80;4.95;;;;;;;27.40;38.09;101473.06;5046283;28;20423;-83
2021/06/10 02:51:12;;;;;;;7.05;5.35;;;;;;;27.43;38.29;101468.63;5045259;28;20023;-83
2021/06/10 02:53:40;;;;;;;8.10;4.95;;;;;;;27.51;38.20;101468.19;5062809;28;20075;-83
2021/06/10 02:56:09;;;;;;;7.45;5.28;;;;;;;27.49;38.31;101464.97;5044513;28;20025;-84
2021/06/10 02:58:38;;;;;;;6.07;5.10;;;;;;;27.52;38.20;101464.16;5046798;28;20108;-84
2021/06/10 03:01:05;;;;;;;6.32;4.05;;;;;;;27.57;37.98;101466.50;5045695;28;20029;-85
2021/06/10 03:03:35;;;;;;;6.80;4.22;;;;;;;27.69;37.90;101462.44;5044865;28;20028;-83
2021/06/10 03:06:02;;;;;;;5.55;4.80;;;;;;;27.64;37.66;101451.63;5060292;28;20067;-84
2021/06/10 03:08:28;;;;;;;5.40;3.97;;;;;;;27.55;38.08;101452.09;5047230;28;20025;-85
2021/06/10 03:10:58;;;;;;;5.97;4.63;;;;;;;27.46;38.22;101463.00;5044474;28;20025;-84
2021/06/10 03:13:25;;;;;;;7.60;4.45;;;;;;;27.52;37.91;101452.94;5064506;28;20032;-84
2021/06/10 03:15:51;;;;;;;7.07;4.70;;;;;;;27.68;37.75;101446.81;5072918;28;20036;-83
2021/06/10 03:18:18;;;;;;;5.65;4.80;;;;;;;27.70;37.33;101452.00;5055289;28;20402;-82
2021/06/10 03:20:45;;;;;;;6.28;4.15;;;;;;;27.67;37.46;101452.81;5073269;28;20033;-81
2021/06/10 03:23:12;;;;;;;5.07;3.92;;;;;;;27.72;37.44;101444.75;5073006;28;20032;-81
2021/06/10 03:25:38;;;;;;;5.47;3.92;;;;;;;27.76;37.50;101450.38;5073083;28;20025;-84
2021/06/10 03:28:06;;;;;;;6.72;4.40;;;;;;;27.81;37.34;101458.31;5055596;28;20109;-83
2021/06/10 03:30:33;;;;;;;5.57;4.03;;;;;;;27.67;37.73;101450.84;5055047;28;20021;-82
2021/06/10 03:33:01;;;;;;;4.68;3.75;;;;;;;27.68;37.63;101444.00;5054937;28;20394;-80
2021/06/10 03:35:28;;;;;;;5.35;3.30;;;;;;;27.75;37.39;101451.59;5072940;28;20528;-81
2021/06/10 03:37:54;;;;;;;6.90;4.03;;;;;;;27.86;37.27;101438.22;5072808;28;20032;-82
2021/06/10 03:40:22;;;;;;;8.60;3.97;;;;;;;27.78;37.41;101443.13;5070518;28;20020;-81
2021/06/10 03:42:49;;;;;;;4.88;3.10;;;;;;;27.97;37.12;101449.38;5055643;28;20387;-85
2021/06/10 03:45:15;;;;;;;4.10;2.83;;;;;;;27.92;37.31;101442.19;5072670;28;20502;-85
2021/06/10 03:47:44;;;;;;;4.03;2.90;;;;;;;28.04;37.08;101438.88;5072936;28;20055;-84
2021/06/10 03:50:10;;;;;;;4.55;3.42;;;;;;;28.04;37.22;101438.88;5055845;28;20132;-88
2021/06/10 03:52:37;;;;;;;3.80;2.50;;;;;;;28.09;37.01;101432.00;5074372;28;20028;-88
2021/06/10 03:55:05;;;;;;;4.05;2.67;;;;;;;28.15;37.07;101433.94;5056742;28;20056;-89
2021/06/10 03:57:33;;;;;;;5.00;2.70;;;;;;;28.08;36.90;101434.00;5055730;28;20029;-86
2021/06/10 03:59:58;;;;;;;5.95;2.67;;;;;;;28.17;36.96;101439.13;5055633;28;20074;-88
2021/06/10 04:02:25;;;;;;;3.30;2.45;;;;;;;28.23;36.78;101433.88;5055607;28;20020;-89
2021/06/10 04:04:53;;;;;;;3.60;2.50;;;;;;;28.12;37.16;101436.78;5054771;28;20743;-81
2021/06/10 04:07:19;;;;;;;3.72;1.90;;;;;;;27.91;37.26;101429.38;5070418;28;20060;-81
2021/06/10 04:09:44;;;;;;;3.40;2.33;;;;;;;28.04;37.20;101429.66;5070305;28;20048;-84
2021/06/10 04:12:10;;;;;;;3.10;2.05;;;;;;;28.21;36.82;101431.47;5052930;28;20503;-83
2021/06/10 04:14:36;;;;;;;4.75;2.40;;;;;;;28.18;36.78;101429.47;5054015;28;20107;-84
2021/06/10 04:17:02;;;;;;;3.28;2.15;;;;;;;28.24;36.83;101424.22;5072103;28;20047;-83
2021/06/10 04:19:28;;;;;;;8.13;2.85;;;;;;;28.19;37.00;101434.72;5071830;28;20039;-84
2021/06/10 04:21:54;;;;;;;7.22;2.88;;;;;;;28.20;36.94;101425.06;5070657;28;20032;-84
2021/06/10 04:24:20;;;;;;;3.55;1.98;;;;;;;28.25;36.92;101420.19;5053854;28;20432;-84
2021/06/10 04:26:46;;;;;;;2.80;1.80;;;;;;;28.26;36.73;101418.97;5054155;28;20073;-84
2021/06/10 04:29:12;;;;;;;4.18;2.30;;;;;;;28.29;36.60;101418.94;5054243;28;20038;-86
2021/06/10 04:31:37;;;;;;;3.35;2.03;;;;;;;28.26;36.97;101418.97;5055106;28;20116;-85
2021/06/10 04:34:03;;;;;;;3.55;2.80;;;;;;;28.27;36.70;101420.59;5054825;28;20052;-85
2021/06/10 04:36:29;;;;;;;3.38;1.73;;;;;;;28.28;36.78;101419.38;5054779;28;20032;-84
2021/06/10 04:38:54;;;;;;;4.47;2.95;;;;;;;28.40;36.33;101419.63;5054420;28;20028;-86
2021/06/10 04:41:20;;;;;;;2.75;1.80;;;;;;;28.23;36.78;101426.22;5054960;28;20028;-85
2021/06/10 04:43:45;;;;;;;2.60;1.73;;;;;;;28.46;36.56;101429.19;5054830;28;20037;-86
2021/06/10 04:46:11;;;;;;;2.78;1.73;;;;;;;28.49;36.53;101430.41;5054476;28;20028;-85
2021/06/10 04:48:37;;;;;;;3.95;2.20;;;;;;;28.57;36.21;101439.53;5071510;28;20024;-84
2021/06/10 04:51:04;;;;;;;2.60;1.92;;;;;;;28.47;36.48;101432.81;5053624;28;20025;-84
2021/06/10 04:53:30;;;;;;;2.20;1.58;;;;;;;28.65;36.53;101441.84;5053624;28;20094;-85
2021/06/10 04:55:56;;;;;;;6.13;2.08;;;;;;;28.58;36.51;101433.50;5054014;28;20494;-85
2021/06/10 04:58:22;;;;;;;3.05;1.75;;;;;;;28.72;36.25;101435.34;5054074;28;20074;-82
2021/06/10 05:00:47;;;;;;;7.68;2.20;;;;;;;28.66;36.46;101429.38;5072670;28;20055;-84
2021/06/10 05:03:13;;;;;;;8.30;2.30;;;;;;;28.63;36.66;101435.03;5072515;28;20028;-81
2021/06/10 05:05:39;;;;;;;2.83;1.63;;;;;;;28.69;36.24;101427.72;5072407;28;20475;-81
2021/06/10 05:08:05;;;;;;;5.38;1.75;;;;;;;28.74;36.32;101432.88;5072470;28;20025;-82
2021/06/10 05:10:31;;;;;;;4.88;2.00;;;;;;;28.79;36.31;101420.34;5054543;28;20028;-81
2021/06/10 05:12:56;;;;;;;6.35;2.45;;;;;;;28.70;36.32;101424.47;5072427;28;20036;-81
2021/06/10 05:15:22;;;;;;;7.82;2.00;;;;;;;28.77;36.47;101428.41;5072314;28;20091;-81
2021/06/10 05:17:48;;;;;;;9.60;2.60;;;;;;;28.79;36.26;101432.41;5054474;28;20042;-84
2021/06/10 05:20:14;;;;;;;8.73;3.63;;;;;;;28.61;36.71;101421.38;5072649;28;20102;-85
2021/06/10 05:22:40;;;;;;;2.40;1.60;;;;;;;28.89;36.22;101427.88;5072418;28;20064;-81
2021/06/10 05:25:06;;;;;;;2.75;1.55;;;;;;;28.94;36.18;101418.97;5072433;28;20114;-81
2021/06/10 05:27:34;;;;;;;4.78;1.70;;;;;;;28.98;36.21;101417.72;5072174;28;20037;-81
2021/06/10 05:30:00;;;;;;;3.22;1.80;;;;;;;28.91;36.18;101414.19;5054357;28;20024;-82
2021/06/10 05:32:25;;;;;;;3.38;1.50;;;;;;;28.99;35.87;101424.13;5054300;28;20485;-81
2021/06/10 05:34:51;;;;;;;3.08;1.55;;;;;;;28.63;36.43;101418.16;5072225;28;20104;-81
2021/06/10 05:37:17;;;;;;;3.92;2.08;;;;;;;28.64;36.49;101412.13;5054303;28;20028;-81
2021/06/10 05:39:43;;;;;;;2.13;1.23;;;;;;;28.67;36.48;101425.34;5072989;28;20091;-82
2021/06/10 05:42:09;;;;;;;2.97;1.55;;;;;;;28.85;35.96;101418.66;5058055;28;20111;-80
2021/06/10 05:44:35;;;;;;;3.83;1.90;;;;;;;28.82;35.98;101422.34;5076246;28;20103;-82
2021/06/10 05:47:01;;;;;;;5.60;2.95;;;;;;;28.56;36.70;101419.03;5076068;28;20119;-84
2021/06/10 05:49:27;;;;;;;5.55;1.92;;;;;;;28.65;36.23;101415.75;5076167;28;20368;-82
2021/06/10 05:51:52;;;;;;;4.15;2.03;;;;;;;28.76;36.06;101419.19;5076069;28;20016;-81
2021/06/10 05:54:18;;;;;;;3.05;1.75;;;;;;;28.46;36.71;101419.97;5057936;28;20035;-80
2021/06/10 05:56:43;;;;;;;2.13;1.45;;;;;;;28.70;36.29;101418.06;5057738;28;20062;-80
2021/06/10 05:59:10;;;;;;;5.85;1.92;;;;;;;28.61;36.41;101410.16;5075670;28;20394;-81
2021/06/10 06:01:35;;;;;;;3.88;1.60;;;;;;;28.69;36.49;101411.66;5075829;28;20020;-81
2021/06/10 06:04:01;;;;;;;1.88;1.40;;;;;;;28.86;35.75;101406.19;5075376;28;20505;-80
2021/06/10 06:06:27;;;;;;;1.45;1.20;;;;;;;28.48;37.00;101415.50;5075693;28;20577;-81
2021/06/10 06:08:52;;;;;;;1.92;1.33;;;;;;;28.49;37.22;101407.91;5057418;28;20032;-82
2021/06/10 06:11:18;;;;;;;3.05;1.48;;;;;;;28.91;36.15;101411.38;5057689;28;20673;-80
2021/06/10 06:13:47;;;;;;;3.22;1.50;;;;;;;29.20;36.13;101412.56;5075344;28;20079;-81
2021/06/10 06:16:17;;;;;;;2.65;1.50;;;;;;;29.51;35.71;101415.34;5075457;28;20107;-80
2021/06/10 06:18:43;;;;;;;1.42;1.20;;;;;;;29.59;35.48;101404.75;5075544;28;20518;-82
2021/06/10 06:21:09;;;;;;;2.28;1.38;;;;;;;29.56;35.63;101403.59;5075318;28;20043;-81
2021/06/10 06:23:35;;;;;;;4.03;1.40;;;;;;;29.76;35.26;101421.31;5057464;28;20395;-80
2021/06/10 06:26:12;;;;;;;3.03;1.30;;;;;;;29.74;35.42;101418.16;5075352;28;20055;-81
2021/06/10 06:28:42;;;;;;;3.78;0.95;;;;;;;29.91;35.04;101421.06;5058000;28;20574;-83
2021/06/10 06:31:08;;;;;;;3.33;1.10;;;;;;;30.08;35.17;101419.97;5058859;28;20131;-88
2021/06/10 06:33:34;;;;;;;3.80;1.23;;;;;;;30.00;35.06;101413.69;5058853;28;20098;-87
2021/06/10 06:36:00;;;;;;;3.70;1.38;;;;;;;30.32;34.54;101404.63;5076683;28;20029;-82
2021/06/10 06:38:27;;;;;;;1.85;1.00;;;;;;;30.56;34.67;101418.63;5058069;28;20148;-84
2021/06/10 06:40:52;;;;;;;3.28;1.13;;;;;;;30.63;34.33;101399.53;5075453;28;20020;-84
2021/06/10 06:43:19;;;;;;;2.38;0.98;;;;;;;30.81;34.43;101401.19;5057132;28;20031;-82
2021/06/10 06:45:45;;;;;;;4.47;1.42;;;;;;;30.78;34.01;101405.69;5056963;28;20070;-83
2021/06/10 06:48:13;;;;;;;5.75;1.52;;;;;;;30.59;34.56;101400.84;5074939;28;20475;-83
2021/06/10 06:50:39;;;;;;;0.88;0.70;;;;;;;30.87;33.78;101411.53;5056721;28;20025;-85
2021/06/10 06:53:04;;;;;;;6.72;1.65;;;;;;;30.98;33.80;101408.47;5057665;28;20035;-83
2021/06/10 06:55:30;;;;;;;2.63;0.93;;;;;;;30.68;34.13;101395.44;5075364;28;20025;-82
2021/06/10 06:57:56;;;;;;;7.95;1.77;;;;;;;30.93;34.08;101400.53;5056992;28;20167;-82
2021/06/10 07:00:23;;;;;;;12.80;2.03;;;;;;;30.82;34.05;101395.13;5075392;28;20431;-83
2021/06/10 07:02:49;;;;;;;2.47;1.42;;;;;;;30.94;33.77;101391.63;5056751;28;20029;-81
2021/06/10 07:05:15;;;;;;;11.18;1.92;;;;;;;30.93;33.66;101401.31;5056507;28;20039;-82
2021/06/10 07:07:40;;;;;;;3.72;1.30;;;;;;;31.03;33.66;101396.66;5056046;28;20372;-82
2021/06/10 07:10:07;;;;;;;3.80;1.20;;;;;;;30.81;34.02;101395.56;5075822;28;20033;-86
2021/06/10 07:12:32;;;;;;;2.72;1.15;;;;;;;30.97;33.61;101392.78;5056311;28;20024;-83
2021/06/10 07:14:59;;;;;;;5.32;1.40;;;;;;;31.17;33.54;101392.72;5073655;28;20056;-83
2021/06/10 07:17:25;;;;;;;3.25;1.15;;;;;;;31.32;32.98;101388.34;5055695;28;20039;-82
2021/06/10 07:19:54;;;;;;;2.72;1.00;;;;;;;31.31;33.38;101389.59;5073756;28;20085;-82
2021/06/10 07:22:20;;;;;;;1.87;0.83;;;;;;;31.11;33.85;101386.00;5073542;28;20025;-81
2021/06/10 07:24:48;;;;;;;1.83;0.93;;;;;;;31.49;32.70;101381.44;5055782;28;20062;-81
2021/06/10 07:27:17;;;;;;;11.50;1.65;;;;;;;31.59;32.74;101388.06;5073825;28;20475;-81
2021/06/10 07:29:44;;;;;;;4.47;1.20;;;;;;;31.82;32.63;101375.00;5056085;28;20056;-80
2021/06/10 07:32:10;;;;;;;6.28;2.22;;;;;;;31.96;32.33;101377.41;5074189;28;20032;-82
2021/06/10 07:34:37;;;;;;;3.03;1.20;;;;;;;32.02;32.42;101373.59;5074134;28;20025;-84
2021/06/10 07:37:06;;;;;;;3.70;0.95;;;;;;;32.03;32.69;101371.56;5072962;28;20032;-81
2021/06/10 07:39:33;;;;;;;2.42;1.10;;;;;;;32.10;32.23;101370.59;5054219;28;20032;-86
2021/06/10 07:41:59;;;;;;;4.70;1.67;;;;;;;32.11;32.13;101358.81;5036451;28;20391;-85
2021/06/10 07:44:26;;;;;;;2.60;1.38;;;;;;;31.99;32.64;101360.38;5053936;28;20491;-81
2021/06/10 07:46:52;;;;;;;5.43;0.95;;;;;;;31.92;32.83;101340.00;5035961;28;20472;-80
2021/06/10 07:49:17;;;;;;;5.88;0.80;;;;;;;31.86;32.73;101350.25;5053870;28;20087;-79
2021/06/10 07:51:43;;;;;;;5.90;1.05;;;;;;;31.85;33.18;101349.47;5053827;28;20095;-82
2021/06/10 07:54:09;;;;;;;10.52;1.48;;;;;;;32.11;32.82;101367.31;5053794;28;20518;-81
2021/06/10 07:56:35;;;;;;;6.50;1.42;;;;;;;31.91;33.18;101350.53;5053908;28;20570;-84
2021/06/10 07:59:00;;;;;;;2.00;0.90;;;;;;;32.08;32.69;101364.59;5053737;28;20021;-82
2021/06/10 08:01:26;;;;;;;2.38;0.75;;;;;;;32.24;32.75;101347.56;5053598;28;20032;-82
2021/06/10 08:03:51;;;;;;;4.55;1.45;;;;;;;32.28;32.74;101356.75;5034929;28;20467;-84
2021/06/10 08:06:17;;;;;;;2.53;0.77;;;;;;;32.73;32.27;101353.78;5035596;28;20527;-81
2021/06/10 08:08:43;;;;;;;10.43;1.10;;;;;;;32.38;32.71;101355.66;5053743;28;20025;-80
2021/06/10 08:11:10;;;;;;;3.17;1.25;;;;;;;32.52;32.46;101360.09;5053438;28;20113;-81
2021/06/10 08:13:36;;;;;;;2.72;1.00;;;;;;;32.74;32.02;101358.19;5055761;28;20107;-81
2021/06/10 08:16:02;;;;;;;10.93;2.28;;;;;;;32.60;32.13;101349.38;5073505;28;20450;-81
2021/06/10 08:18:29;;;;;;;5.72;1.13;;;;;;;32.76;32.24;101357.75;5073406;28;20021;-82
2021/06/10 08:20:56;;;;;;;8.85;1.33;;;;;;;32.27;32.83;101358.00;5073501;28;20410;-81
2021/06/10 08:23:22;;;;;;;2.25;1.05;;;;;;;32.48;32.63;101357.38;5055310;28;20031;-81
2021/06/10 08:25:47;;;;;;;2.15;1.08;;;;;;;32.85;32.28;101349.41;5071954;28;20029;-81
2021/06/10 08:28:13;;;;;;;5.05;1.50;;;;;;;32.94;31.96;101351.53;5053145;28;20086;-81
2021/06/10 08:30:40;;;;;;;2.78;1.27;;;;;;;33.19;31.43;101359.25;5071198;28;20103;-81
2021/06/10 08:33:06;;;;;;;2.88;1.15;;;;;;;33.19;31.45;101348.72;5053433;28;20029;-81
2021/06/10 08:35:33;;;;;;;8.20;1.70;;;;;;;33.28;31.32;101345.19;5071231;28;20035;-82
2021/06/10 08:38:00;;;;;;;8.27;2.25;;;;;;;33.36;31.51;101352.19;5053771;28;20029;-81
2021/06/10 08:40:26;;;;;;;2.67;1.23;;;;;;;33.33;31.44;101327.63;5054088;28;20032;-84
2021/06/10 08:42:52;;;;;;;6.38;1.70;;;;;;;33.32;30.98;101340.97;5055242;28;20025;-81
2021/06/10 08:45:19;;;;;;;3.58;1.50;;;;;;;33.27;31.21;101340.75;5072825;28;20103;-82
2021/06/10 08:47:48;;;;;;;9.82;2.45;;;;;;;33.29;31.28;101339.06;5072785;28;20086;-81
2021/06/10 08:50:18;;;;;;;10.15;2.30;;;;;;;33.39;30.75;101323.75;5055247;28;20075;-82
2021/06/10 08:52:44;;;;;;;3.17;1.25;;;;;;;33.34;30.92;101332.03;5072854;28;20028;-81
2021/06/10 08:55:12;;;;;;;2.72;1.40;;;;;;;33.61;30.46;101331.50;5072667;28;20016;-81
2021/06/10 08:57:38;;;;;;;3.88;1.40;;;;;;;33.59;30.35;101317.81;5072765;28;20029;-82
2021/06/10 09:00:04;;;;;;;5.07;1.95;;;;;;;33.63;30.58;101335.50;5072294;28;20382;-81
2021/06/10 09:02:30;;;;;;;3.28;1.70;;;;;;;33.59;30.51;101322.69;5072249;28;20034;-80
2021/06/10 09:05:08;;;;;;;14.85;2.42;;;;;;;33.61;29.91;101323.81;5055019;28;20036;-82
2021/06/10 09:07:39;;;;;;;2.40;1.30;;;;;;;33.44;30.17;101330.09;5072351;28;20052;-81
2021/06/10 09:10:07;;;;;;;5.38;1.60;;;;;;;33.41;30.20;101328.19;5054645;28;20086;-83
2021/06/10 09:12:50;;;;;;;8.13;1.95;;;;;;;33.63;29.57;101332.66;5072653;28;20429;-81
2021/06/10 09:15:18;;;;;;;2.65;1.50;;;;;;;33.69;29.86;101321.50;5071809;28;20414;-81
2021/06/10 09:17:44;;;;;;;4.40;1.55;;;;;;;33.56;29.94;101323.63;5072453;28;20025;-81
2021/06/10 09:20:18;;;;;;;3.67;1.23;;;;;;;33.82;29.33;101335.63;5072525;28;20363;-82
2021/06/10 09:22:46;;;;;;;10.77;2.10;;;;;;;33.74;29.41;101328.63;5072406;28;20479;-81
2021/06/10 09:25:16;;;;;;;1.55;1.20;;;;;;;33.83;29.17;101337.22;5072337;28;20480;-82
2021/06/10 09:27:55;;;;;;;3.90;1.58;;;;;;;33.64;29.51;101328.56;5072243;28;20025;-81
2021/06/10 09:30:27;;;;;;;4.15;1.98;;;;;;;33.71;29.16;101338.06;5072723;28;20542;-82
2021/06/10 09:32:53;;;;;;;5.97;1.88;;;;;;;33.93;29.16;101338.88;5054230;28;20062;-81
2021/06/10 09:35:30;;;;;;;2.58;1.23;;;;;;;33.93;29.20;101341.72;5054389;28;20055;-82
2021/06/10 09:37:58;;;;;;;1.65;1.52;;;;;;;34.07;29.59;101335.53;5072359;28;20029;-81
2021/06/10 09:40:23;;;;;;;3.45;1.75;;;;;;;34.33;28.92;101335.38;5054294;28;20544;-81
2021/06/10 09:42:49;;;;;;;3.15;1.27;;;;;;;34.24;28.81;101335.34;5054354;28;20032;-84
2021/06/10 09:45:18;;;;;;;4.35;1.30;;;;;;;33.84;29.44;101333.13;5072267;28;20021;-81
2021/06/10 09:47:53;;;;;;;2.17;1.42;;;;;;;33.75;29.05;101338.72;5072116;28;20064;-81
2021/06/10 09:50:27;;;;;;;18.98;3.13;;;;;;;33.77;29.04;101339.84;5072189;28;20036;-81
2021/06/10 09:52:59;;;;;;;3.47;1.52;;;;;;;33.70;29.24;101340.09;5054473;28;20028;-83
2021/06/10 09:55:33;;;;;;;1.25;1.10;;;;;;;33.60;29.18;101330.72;5054168;28;20059;-82
2021/06/10 09:58:11;;;;;;;2.00;1.35;;;;;;;33.78;29.20;101321.59;5072095;28;20108;-83
2021/06/10 10:00:37;;;;;;;4.78;1.95;;;;;;;33.80;29.24;101318.31;5072006;28;20033;-81
2021/06/10 10:03:03;;;;;;;1.90;1.23;;;;;;;33.82;29.18;101325.09;5053933;28;20047;-82
2021/06/10 10:05:29;;;;;;;3.05;1.30;;;;;;;33.80;28.69;101324.75;5072139;28;20021;-81
2021/06/10 10:07:54;;;;;;;5.07;1.50;;;;;;;33.77;29.42;101324.88;5071855;28;20173;-84
2021/06/10 10:10:22;;;;;;;9.70;3.13;;;;;;;33.73;29.20;101310.06;5071998;28;20036;-81
2021/06/10 10:12:50;;;;;;;4.75;1.55;;;;;;;33.53;29.38;101313.97;5071861;28;20027;-81
2021/06/10 10:15:16;;;;;;;5.78;1.80;;;;;;;33.67;29.57;101319.13;5071811;28;20037;-82
2021/06/10 10:17:45;;;;;;;8.38;2.42;;;;;;;33.55;29.35;101317.13;5071884;28;20029;-80
2021/06/10 10:20:13;;;;;;;2.40;1.30;;;;;;;33.75;29.18;101313.22;5071877;28;20048;-82
2021/06/10 10:22:39;;;;;;;3.97;1.60;;;;;;;33.76;29.09;101303.47;5071910;28;20024;-81
2021/06/10 10:25:06;;;;;;;7.63;1.80;;;;;;;33.90;28.85;101306.59;5071761;28;20025;-80
2021/06/10 10:27:31;;;;;;;3.88;1.50;;;;;;;33.98;28.79;101306.31;5074864;28;20032;-84
2021/06/10 10:29:58;;;;;;;30.17;4.45;;;;;;;34.04;28.46;101310.94;5075550;28;20074;-80
2021/06/10 10:32:29;;;;;;;5.45;1.60;;;;;;;34.22;28.51;101315.94;5075303;28;20029;-81
2021/06/10 10:35:20;;;;;;;1.80;1.38;;;;;;;34.08;28.28;101311.59;5075826;28;20394;-80
2021/06/10 10:37:46;;;;;;;2.83;1.52;;;;;;;33.68;29.11;101312.22;5057515;28;20440;-80
2021/06/10 10:40:24;;;;;;;3.83;1.98;;;;;;;33.90;28.65;101317.13;5075085;28;20104;-80
2021/06/10 10:42:52;;;;;;;7.82;1.88;;;;;;;34.38;28.57;101323.44;5057201;28;20108;-80
2021/06/10 10:45:17;;;;;;;2.60;1.42;;;;;;;34.23;28.48;101314.69;5075086;28;20051;-80
2021/06/10 10:47:44;;;;;;;4.25;1.50;;;;;;;34.46;27.81;101299.22;5074908;28;20028;-80
2021/06/10 10:50:17;;;;;;;2.88;0.95;;;;;;;34.73;27.80;101301.41;5074789;28;20032;-81
2021/06/10 10:52:53;;;;;;;2.22;1.38;;;;;;;34.75;28.29;101311.00;5074858;28;20024;-81
2021/06/10 10:55:27;;;;;;;0.85;0.85;;;;;;;34.93;27.76;101301.81;5074875;28;20623;-81
2021/06/10 10:58:05;;;;;;;3.47;1.40;;;;;;;34.99;27.30;101307.66;5074953;28;20424;-82
2021/06/10 11:00:53;;;;;;;2.00;1.33;;;;;;;34.82;27.06;101309.16;5056907;28;20027;-85
2021/06/10 11:03:33;;;;;;;5.17;2.13;;;;;;;35.29;27.14;101312.47;5074658;28;20035;-80
2021/06/10 11:06:20;;;;;;;1.70;1.10;;;;;;;35.63;27.40;101316.31;5074413;28;20024;-82
2021/06/10 11:09:06;;;;;;;6.45;2.10;;;;;;;34.94;27.63;101313.97;5056367;28;20040;-81
2021/06/10 11:11:55;;;;;;;10.23;1.80;;;;;;;35.20;27.12;101303.91;5074582;28;20021;-84
2021/06/10 11:14:42;;;;;;;33.50;4.72;;;;;;;35.26;27.16;101289.88;5056294;28;20434;-81
2021/06/10 11:17:19;;;;;;;8.57;2.80;;;;;;;35.40;27.19;101297.81;5074457;28;20466;-81
2021/06/10 11:20:06;;;;;;;2.65;1.42;;;;;;;35.41;26.85;101284.41;5074422;28;20029;-82
2021/06/10 11:22:39;;;;;;;5.93;2.00;;;;;;;35.47;26.67;101271.94;5074571;28;20025;-82
2021/06/10 11:25:24;;;;;;;12.88;3.33;;;;;;;35.85;26.81;101288.50;5074349;28;20103;-81
2021/06/10 11:27:51;;;;;;;7.15;2.00;;;;;;;35.95;26.62;101269.38;5074124;28;20532;-82